Latest Weather Observations for Geelong Racecourse

IDV60801

Issued at 11:02 pm EST Saturday 25 May 2019 (issued every 10 minutes, with the page automatically refreshed every 10 minutes)

About weather observations | Map of weather stations | Latest weather observations for VIC | Other Formats
Station Details ID: 087184 Name: GEELONG RACECOURSE Lat: -38.17 Lon: 144.38 Height: 12.9 m
Data from the previous 72 hours. | See also: Recent months at Geelong Racecourse
Date/Time
EST
Temp
°C
App
Temp
°C
Dew
Point
°C
Rel
Hum
%
Delta-T
°C
Wind Press
QNH
hPa
Press
MSL
hPa
Rain since
9am
mm
Dir  Spd
km/h
Gust
km/h
Spd
kts
Gust
kts
25/11:00pm 10.9 8.8 9.8 93 0.6 WNW 11 22 6 12 1011.6 1011.6 0.8
25/10:30pm 11.4 9.0 10.1 92 0.7 WNW 13 22 7 12 1011.6 1011.6 0.8
25/10:00pm 11.8 9.6 10.7 93 0.6 NW 13 20 7 11 1011.8 1011.8 0.8
25/09:30pm 12.1 9.2 11.0 93 0.6 WNW 17 26 9 14 1011.6 1011.6 0.8
25/09:00pm 12.3 9.5 11.2 93 0.6 WNW 17 28 9 15 1011.1 1011.1 0.8
25/08:30pm 12.5 10.1 11.4 93 0.6 NW 15 22 8 12 1011.0 1011.0 0.8
25/08:00pm 12.3 10.2 11.2 93 0.6 NW 13 19 7 10 1010.9 1010.9 0.8
25/07:30pm 12.3 10.2 11.2 93 0.6 NW 13 20 7 11 1010.9 1010.9 0.8
25/07:00pm 12.4 10.3 11.3 93 0.6 NW 13 20 7 11 1010.7 1010.7 0.8
25/06:30pm 13.2 10.7 12.3 94 0.5 NW 17 24 9 13 1010.4 1010.4 0.8
25/06:00pm 13.8 11.8 12.7 93 0.6 NW 15 22 8 12 1010.2 1010.2 0.4
25/05:30pm 14.2 11.3 12.9 92 0.7 NW 20 30 11 16 1010.1 1010.1 0.2
25/05:00pm 15.5 12.9 11.9 79 2.0 WNW 17 28 9 15 1009.8 1009.8 0.2
25/04:30pm 16.7 12.5 11.0 69 3.1 NW 24 37 13 20 1009.4 1009.4 0.2
25/04:00pm 17.0 13.4 11.9 72 2.8 NW 22 35 12 19 1009.1 1009.1 0.2
25/03:30pm 17.0 13.1 12.1 73 2.7 NNW 24 35 13 19 1009.2 1009.2 0.2
25/03:00pm 17.0 15.1 12.9 77 2.3 NW 15 28 8 15 1009.3 1009.3 0.2
25/02:30pm 16.6 14.2 12.8 78 2.1 NNW 17 28 9 15 1009.4 1009.4 0.2
25/02:00pm 16.5 13.9 13.2 81 1.8 NNW 19 33 10 18 1010.0 1010.0 0.2
25/01:30pm 16.1 13.6 14.1 88 1.1 NNW 20 30 11 16 1010.1 1010.1 0.2
25/01:00pm 15.6 13.7 14.3 92 0.7 NNW 17 24 9 13 1010.6 1010.6 0.2
25/12:30pm 15.4 12.5 12.9 85 1.4 NW 20 33 11 18 1011.3 1011.3 0.2
25/12:00pm 15.8 12.4 12.5 81 1.8 NW 22 33 12 18 1011.7 1011.7 0.2
25/11:30am 16.9 12.7 11.2 69 3.1 NW 24 35 13 19 1012.0 1012.0 0.0
25/11:00am 17.2 13.4 11.2 68 3.2 NW 22 33 12 18 1012.2 1012.2 0.0
25/10:30am 16.6 14.4 12.2 75 2.4 NW 15 24 8 13 1012.4 1012.4 0.0
25/10:00am 15.1 12.9 12.1 82 1.6 NNW 15 24 8 13 1012.6 1012.6 0.0
25/09:30am 14.1 12.3 12.1 88 1.1 NW 13 19 7 10 1013.1 1013.1 0.0
25/09:00am 13.5 12.9 12.2 92 0.7 NW 7 13 4 7 1013.2 1013.2 1.6
25/08:30am 12.4 11.2 11.5 94 0.5 NNW 9 17 5 9 1013.3 1013.3 1.6
25/08:00am 10.6 9.8 9.8 95 0.4 NW 4 6 2 3 1013.2 1013.2 1.6
25/07:30am 10.2 9.3 9.4 95 0.4 NNW 4 6 2 3 1013.0 1013.0 1.6
25/07:00am 9.7 8.3 8.9 95 0.4 NNW 6 7 3 4 1012.9 1012.9 1.6
25/06:30am 9.5 8.5 8.7 95 0.4 NW 4 6 2 3 1012.8 1012.8 1.6
25/06:00am 10.9 9.8 10.1 95 0.4 N 6 7 3 4 1012.8 1012.8 1.6
25/05:30am 10.1 10.0 9.3 95 0.4 CALM 0 2 0 1 1012.8 1012.8 1.6
25/05:00am 11.3 10.4 10.5 95 0.4 NNW 6 6 3 3 1012.7 1012.7 1.6
25/04:30am 12.0 11.2 11.2 95 0.4 N 6 9 3 5 1012.6 1012.6 1.6
25/04:00am 11.8 11.7 10.9 94 0.5 NNW 2 4 1 2 1012.8 1012.8 1.6
25/03:30am 12.2 11.9 11.3 94 0.5 NW 4 7 2 4 1013.0 1013.0 1.6
25/03:00am 12.6 11.8 11.7 94 0.5 NW 7 9 4 5 1013.4 1013.4 1.6
25/02:30am 12.5 11.7 11.6 94 0.5 NNW 7 11 4 6 1013.7 1013.7 1.6
25/02:00am 12.4 11.5 11.3 93 0.6 NNW 7 9 4 5 1013.9 1013.9 1.6
25/01:30am 12.9 12.7 11.8 93 0.6 NW 4 6 2 3 1014.0 1014.0 1.6
25/01:00am 13.7 13.1 12.4 92 0.7 WNW 7 11 4 6 1014.2 1014.2 1.6
25/12:30am 14.6 14.3 13.3 92 0.7 WNW 7 13 4 7 1014.4 1014.4 1.6
25/12:00am 14.9 14.0 13.6 92 0.7 WNW 11 17 6 9 1014.4 1014.4 1.6
 
Date/Time
EST
Temp
°C
App
Temp
°C
Dew
Point
°C
Rel
Hum
%
Delta-T
°C
Wind Press
QNH
hPa
Press
MSL
hPa
Rain since
9am
mm
Dir  Spd
km/h
Gust
km/h
Spd
kts
Gust
kts
24/11:30pm 14.9 14.8 13.8 93 0.6 WNW 7 11 4 6 1014.4 1014.4 1.6
24/11:00pm 15.0 14.5 13.9 93 0.6 W 9 11 5 6 1014.3 1014.3 1.6
24/10:30pm 15.3 15.3 14.2 93 0.6 WNW 7 11 4 6 1014.4 1014.4 1.6
24/10:00pm 15.6 15.7 14.5 93 0.6 WNW 7 13 4 7 1014.5 1014.5 1.6
24/09:30pm 15.7 15.8 14.4 92 0.7 WNW 7 9 4 5 1014.5 1014.5 1.6
24/09:00pm 15.9 16.1 14.6 92 0.7 WNW 7 9 4 5 1014.5 1014.5 1.6
24/08:30pm 16.4 15.0 13.5 83 1.6 W 13 24 7 13 1014.5 1014.5 1.6
24/08:00pm 17.9 14.7 11.2 65 3.6 NW 19 32 10 17 1014.1 1014.1 0.6
24/07:30pm 19.5 13.5 10.2 55 5.0 NNW 32 48 17 26 1013.2 1013.2 0.4
24/07:22pm 19.6 14.3 10.0 54 5.1 NNW 28 48 15 26 1013.1 1013.1 0.4
24/07:00pm 19.3 15.6 10.0 55 5.0 NNW 20 33 11 18 1013.1 1013.1 0.4
24/06:30pm 19.1 14.9 9.9 55 4.9 N 22 33 12 18 1012.8 1012.8 0.4
24/06:00pm 19.2 15.0 9.7 54 5.0 N 22 33 12 18 1012.6 1012.6 0.4
24/05:30pm 19.5 15.6 9.4 52 5.3 N 20 33 11 18 1012.7 1012.7 0.4
24/05:00pm 20.1 15.4 9.4 50 5.7 N 24 39 13 21 1012.7 1012.7 0.4
24/04:30pm 21.6 17.7 9.5 46 6.5 NNW 20 32 11 17 1012.6 1012.6 0.4
24/04:00pm 21.6 16.6 9.5 46 6.5 NNW 26 37 14 20 1012.4 1012.4 0.4
24/03:30pm 21.9 16.4 9.1 44 6.8 NNW 28 50 15 27 1012.0 1012.0 0.4
24/03:04pm 22.5 16.7 9.6 44 7.0 NNW 30 48 16 26 1012.1 1012.1 0.4
24/03:00pm 22.4 16.2 9.2 43 7.1 NNW 32 48 17 26 1012.0 1012.0 0.4
24/02:47pm 22.8 17.4 9.6 43 7.1 NNW 28 46 15 25 1011.9 1011.9 0.4
24/02:30pm 22.8 18.3 9.9 44 7.0 NNW 24 50 13 27 1012.0 1012.0 0.4
24/02:00pm 21.4 17.8 10.6 50 5.9 NNW 20 35 11 19 1012.4 1012.4 0.4
24/01:30pm 21.9 18.4 12.2 54 5.5 NNW 22 35 12 19 1013.0 1013.0 0.4
24/01:00pm 16.9 16.6 14.4 85 1.4 NNE 9 13 5 7 1013.7 1013.7 0.4
24/12:30pm 15.9 15.2 14.3 90 0.9 NE 11 17 6 9 1014.7 1014.7 0.4
24/12:00pm 15.4 14.8 13.4 88 1.1 NE 9 15 5 8 1015.7 1015.7 0.4
24/11:30am 16.2 15.5 13.1 82 1.7 NE 9 13 5 7 1016.2 1016.2 0.4
24/11:00am 15.9 15.8 13.2 84 1.5 ENE 6 7 3 4 1016.7 1016.7 0.4
24/10:30am 15.2 15.2 13.6 90 0.9 WNW 6 7 3 4 1017.5 1017.5 0.4
24/10:00am 14.5 14.2 13.2 92 0.7 NNE 7 9 4 5 1017.7 1017.7 0.4
24/09:30am 13.7 12.1 10.1 79 1.9 NNE 9 11 5 6 1017.6 1017.6 0.2
24/09:00am 14.9 11.7 8.6 66 3.2 NW 15 26 8 14 1018.1 1018.1 0.2
24/08:30am 14.5 13.0 9.3 71 2.7 NW 7 13 4 7 1018.2 1018.2 0.2
24/08:00am 13.2 12.7 9.3 77 2.0 ESE 2 4 1 2 1018.3 1018.3 0.2
24/07:30am 13.1 12.0 8.6 74 2.2 NNW 4 9 2 5 1018.3 1018.3 0.2
24/07:00am 13.6 13.2 8.2 70 2.7 CALM 0 2 0 1 1017.7 1017.7 0.2
24/06:30am 13.9 12.3 7.9 67 3.0 E 6 7 3 4 1017.2 1017.2 0.2
24/06:00am 14.2 12.5 7.5 64 3.3 NNW 6 9 3 5 1017.0 1017.0 0.2
24/05:30am 14.3 13.0 7.6 64 3.3 N 4 6 2 3 1016.7 1016.7 0.2
24/05:00am 14.8 12.9 7.6 62 3.6 ENE 7 11 4 6 1016.4 1016.4 0.2
24/04:30am 14.8 13.1 7.4 61 3.7 WNW 6 11 3 6 1017.2 1017.2 0.2
24/04:00am 15.1 12.0 7.2 59 3.9 WNW 13 19 7 10 1017.1 1017.1 0.2
24/03:30am 15.6 11.7 7.1 57 4.2 NW 17 24 9 13 1017.4 1017.4 0.2
24/03:00am 16.2 12.7 7.2 55 4.5 NW 15 24 8 13 1017.6 1017.6 0.2
24/02:30am 17.1 13.9 6.9 51 5.1 NW 13 22 7 12 1017.9 1017.9 0.2
24/02:00am 17.7 13.8 6.9 49 5.4 NW 17 24 9 13 1018.0 1018.0 0.2
24/01:30am 18.1 14.5 6.9 48 5.6 NNW 15 20 8 11 1018.2 1018.2 0.2
24/01:00am 16.4 15.1 7.6 56 4.4 N 4 6 2 3 1018.4 1018.4 0.2
24/12:30am 16.8 15.9 7.7 55 4.6 NW 2 6 1 3 1018.7 1018.7 0.2
24/12:00am 17.7 14.6 7.4 51 5.2 NNW 13 17 7 9 1018.7 1018.7 0.2
 
Date/Time
EST
Temp
°C
App
Temp
°C
Dew
Point
°C
Rel
Hum
%
Delta-T
°C
Wind Press
QNH
hPa
Press
MSL
hPa
Rain since
9am
mm
Dir  Spd
km/h
Gust
km/h
Spd
kts
Gust
kts
23/11:30pm 17.4 14.1 8.0 54 4.8 N 15 20 8 11 1018.4 1018.4 0.2
23/11:00pm 16.9 15.1 9.3 61 3.9 N 9 17 5 9 1018.6 1018.6 0.2
23/10:30pm 17.9 14.3 8.2 53 5.0 N 17 30 9 16 1018.8 1018.8 0.0
23/10:00pm 17.9 13.8 8.5 54 4.8 N 20 35 11 19 1019.3 1019.3 0.0
23/09:30pm 17.4 13.5 8.8 57 4.4 N 19 28 10 15 1019.1 1019.1 0.0
23/09:00pm 17.4 14.0 9.1 58 4.3 N 17 28 9 15 1019.3 1019.3 0.0
23/08:30pm 17.0 14.8 9.4 61 4.0 N 11 17 6 9 1019.7 1019.7 0.0
23/08:00pm 17.3 14.7 9.5 60 4.1 N 13 17 7 9 1019.7 1019.7 0.0
23/07:30pm 17.6 14.7 9.5 59 4.2 N 15 20 8 11 1019.9 1019.9 0.0
23/07:00pm 17.6 14.7 9.5 59 4.2 N 15 19 8 10 1020.1 1020.1 0.0
23/06:30pm 17.7 15.2 9.6 59 4.3 N 13 17 7 9 1020.2 1020.2 0.0
23/06:00pm 18.2 16.8 9.5 57 4.6 NNW 7 13 4 7 1020.3 1020.3 0.0
23/05:30pm 19.0 16.1 9.5 54 5.0 N 15 24 8 13 1019.9 1019.9 0.0
23/05:00pm 20.0 17.5 9.6 51 5.5 N 13 26 7 14 1019.7 1019.7 0.0
23/04:30pm 20.9 18.0 9.5 48 6.1 N 15 24 8 13 1020.0 1020.0 0.0
23/04:00pm 21.8 19.6 9.3 45 6.7 NNW 11 19 6 10 1020.2 1020.2 0.0
23/03:30pm 22.1 18.6 8.9 43 7.0 NNW 17 24 9 13 1020.3 1020.3 0.0
23/03:00pm 22.6 19.3 9.4 43 7.1 NNW 17 26 9 14 1020.5 1020.5 0.0
23/02:30pm 22.6 19.7 9.7 44 7.0 NW 15 24 8 13 1021.0 1021.0 0.0
23/02:00pm 22.3 18.4 9.5 44 6.9 NW 20 32 11 17 1021.4 1021.4 0.0
23/01:30pm 22.1 18.3 9.9 46 6.6 NNW 20 28 11 15 1021.9 1021.9 0.0
23/01:00pm 21.9 18.7 10.1 47 6.4 NNW 17 26 9 14 1022.4 1022.4 0.0
23/12:30pm 21.1 20.3 11.7 55 5.2 NNW 7 19 4 10 1023.0 1023.0 0.0
23/12:00pm 18.8 19.0 11.9 64 3.8 N 2 7 1 4 1023.7 1023.7 0.0
23/11:30am 17.6 17.3 11.6 68 3.3 NNE 4 6 2 3 1024.4 1024.4 0.0
23/11:00am 16.4 16.2 11.8 74 2.5 NNE 4 6 2 3 1025.0 1025.0 0.0
23/10:30am 15.2 15.4 14.1 93 0.6 NE 6 6 3 3 1025.4 1025.4 0.0
23/10:00am 13.5 14.1 13.2 98 0.2 NE 2 4 1 2 1025.6 1025.6 0.0
23/09:30am 11.4 11.8 11.1 98 0.2 CALM 0 0 0 0 1025.7 1025.7 0.0
23/09:00am 9.2 9.0 8.9 98 0.1 CALM 0 0 0 0 1026.0 1026.0 0.0
23/08:30am 8.3 7.8 8.0 98 0.1 CALM 0 0 0 0 1026.0 1026.0 0.0
23/08:00am 6.9 5.7 6.6 98 0.1 WNW 2 6 1 3 1025.9 1025.9 0.0
23/07:30am 5.8 4.0 5.5 98 0.1 WNW 4 6 2 3 1025.7 1025.7 0.0
23/07:00am 6.2 4.5 5.9 98 0.1 N 4 6 2 3 1025.6 1025.6 0.0
23/06:30am 6.5 5.2 6.2 98 0.1 WNW 2 4 1 2 1025.5 1025.5 0.0
23/06:00am 6.6 5.8 6.3 98 0.1 CALM 0 0 0 0 1025.4 1025.4 0.0
23/05:30am 6.6 5.8 6.3 98 0.1 CALM 0 0 0 0 1025.4 1025.4 0.0
23/05:00am 6.0 5.0 5.6 97 0.2 CALM 0 0 0 0 1025.5 1025.5 0.0
23/04:30am 6.3 5.4 5.9 97 0.2 CALM 0 0 0 0 1025.4 1025.4 0.0
23/04:00am 6.8 6.0 6.4 97 0.2 CALM 0 0 0 0 1025.6 1025.6 0.0
23/03:30am 6.6 5.7 6.2 97 0.2 CALM 0 0 0 0 1025.8 1025.8 0.0
23/03:00am 7.0 6.2 6.6 97 0.2 CALM 0 0 0 0 1026.0 1026.0 0.0
23/02:30am 7.0 6.2 6.6 97 0.2 CALM 0 0 0 0 1026.0 1026.0 0.0
23/02:00am 7.0 6.2 6.6 97 0.2 CALM 0 0 0 0 1026.1 1026.1 0.0
23/01:30am 7.5 6.8 7.1 97 0.2 CALM 0 0 0 0 1026.3 1026.3 0.0
23/01:00am 7.7 7.1 7.3 97 0.2 CALM 0 0 0 0 1026.6 1026.6 0.0
23/12:30am 8.1 7.6 7.7 97 0.2 CALM 0 0 0 0 1026.8 1026.8 0.0
23/12:00am 8.5 8.1 8.1 97 0.2 CALM 0 0 0 0 1027.0 1027.0 0.0
 
Date/Time
EST
Temp
°C
App
Temp
°C
Dew
Point
°C
Rel
Hum
%
Delta-T
°C
Wind Press
QNH
hPa
Press
MSL
hPa
Rain since
9am
mm
Dir  Spd
km/h
Gust
km/h
Spd
kts
Gust
kts
22/11:30pm 8.7 8.3 8.1 96 0.3 CALM 0 0 0 0 1027.0 1027.0 0.0

Other formats

Comma delimited format used in spreadsheet applications
http://www.bom.gov.au/fwo/IDV60801/IDV60801.94857.axf

JavaScript Object Notation format (JSON) in row-major order
http://www.bom.gov.au/fwo/IDV60801/IDV60801.94857.json

Data quality

Most of these data are generated automatically and are frequently updated. Quality checks on data are not normally performed. It is possible for incorrect values to appear. Refer to information at About Latest Weather Observations and please check the disclaimer before using these data.